sensor_id;sensor_type;location;lat;lon;timestamp;P1;durP1;ratioP1;P2;durP2;ratioP2
54167;SDS011;40072;50.958;3.592;2022-07-23T00:00:32;11.18;;;6.85;;
54167;SDS011;40072;50.958;3.592;2022-07-23T00:02:58;9.43;;;6.20;;
54167;SDS011;40072;50.958;3.592;2022-07-23T00:05:24;11.02;;;6.25;;
54167;SDS011;40072;50.958;3.592;2022-07-23T00:07:50;12.63;;;6.90;;
54167;SDS011;40072;50.958;3.592;2022-07-23T00:10:15;7.45;;;5.88;;
54167;SDS011;40072;50.958;3.592;2022-07-23T00:12:41;9.20;;;6.63;;
54167;SDS011;40072;50.958;3.592;2022-07-23T00:15:07;10.43;;;6.57;;
54167;SDS011;40072;50.958;3.592;2022-07-23T00:17:34;10.10;;;6.65;;
54167;SDS011;40072;50.958;3.592;2022-07-23T00:19:59;10.73;;;6.10;;
54167;SDS011;40072;50.958;3.592;2022-07-23T00:22:25;7.78;;;6.90;;
54167;SDS011;40072;50.958;3.592;2022-07-23T00:24:52;11.88;;;7.50;;
54167;SDS011;40072;50.958;3.592;2022-07-23T00:27:18;12.57;;;7.55;;
54167;SDS011;40072;50.958;3.592;2022-07-23T00:29:44;13.00;;;8.18;;
54167;SDS011;40072;50.958;3.592;2022-07-23T00:32:09;12.65;;;7.95;;
54167;SDS011;40072;50.958;3.592;2022-07-23T00:34:35;10.00;;;7.55;;
54167;SDS011;40072;50.958;3.592;2022-07-23T00:37:01;12.25;;;7.72;;
54167;SDS011;40072;50.958;3.592;2022-07-23T00:39:26;11.38;;;7.10;;
54167;SDS011;40072;50.958;3.592;2022-07-23T00:41:52;10.18;;;7.18;;
54167;SDS011;40072;50.958;3.592;2022-07-23T00:44:19;11.48;;;7.45;;
54167;SDS011;40072;50.958;3.592;2022-07-23T00:46:51;12.93;;;7.95;;
54167;SDS011;40072;50.958;3.592;2022-07-23T00:49:22;12.25;;;7.63;;
54167;SDS011;40072;50.958;3.592;2022-07-23T00:51:50;8.63;;;6.85;;
54167;SDS011;40072;50.958;3.592;2022-07-23T00:54:16;9.40;;;8.13;;
54167;SDS011;40072;50.958;3.592;2022-07-23T00:56:43;9.30;;;7.80;;
54167;SDS011;40072;50.958;3.592;2022-07-23T00:59:10;10.32;;;7.68;;
54167;SDS011;40072;50.958;3.592;2022-07-23T01:01:36;9.75;;;7.00;;
54167;SDS011;40072;50.958;3.592;2022-07-23T01:04:02;8.52;;;6.88;;
54167;SDS011;40072;50.958;3.592;2022-07-23T01:06:28;8.90;;;7.35;;
54167;SDS011;40072;50.958;3.592;2022-07-23T01:08:54;10.10;;;7.30;;
54167;SDS011;40072;50.958;3.592;2022-07-23T01:11:21;10.88;;;7.80;;
54167;SDS011;40072;50.958;3.592;2022-07-23T01:13:48;13.65;;;7.53;;
54167;SDS011;40072;50.958;3.592;2022-07-23T01:16:14;12.45;;;8.07;;
54167;SDS011;40072;50.958;3.592;2022-07-23T01:18:39;7.85;;;6.95;;
54167;SDS011;40072;50.958;3.592;2022-07-23T01:21:05;10.95;;;7.28;;
54167;SDS011;40072;50.958;3.592;2022-07-23T01:23:31;7.70;;;6.78;;
54167;SDS011;40072;50.958;3.592;2022-07-23T01:25:57;12.82;;;7.43;;
54167;SDS011;40072;50.958;3.592;2022-07-23T01:28:23;8.10;;;7.22;;
54167;SDS011;40072;50.958;3.592;2022-07-23T01:30:49;14.85;;;7.78;;
54167;SDS011;40072;50.958;3.592;2022-07-23T01:33:14;11.02;;;7.40;;
54167;SDS011;40072;50.958;3.592;2022-07-23T01:35:40;8.30;;;7.50;;
54167;SDS011;40072;50.958;3.592;2022-07-23T01:38:06;8.38;;;7.55;;
54167;SDS011;40072;50.958;3.592;2022-07-23T01:40:31;9.20;;;6.90;;
54167;SDS011;40072;50.958;3.592;2022-07-23T01:42:57;10.25;;;6.78;;
54167;SDS011;40072;50.958;3.592;2022-07-23T01:45:23;9.20;;;7.85;;
54167;SDS011;40072;50.958;3.592;2022-07-23T01:47:49;7.60;;;6.65;;
54167;SDS011;40072;50.958;3.592;2022-07-23T01:50:14;9.07;;;6.88;;
54167;SDS011;40072;50.958;3.592;2022-07-23T01:52:40;16.05;;;7.63;;
54167;SDS011;40072;50.958;3.592;2022-07-23T01:55:06;8.73;;;7.60;;
54167;SDS011;40072;50.958;3.592;2022-07-23T01:57:32;10.77;;;7.68;;
54167;SDS011;40072;50.958;3.592;2022-07-23T01:59:58;8.98;;;7.22;;
54167;SDS011;40072;50.958;3.592;2022-07-23T02:02:24;10.40;;;8.10;;
54167;SDS011;40072;50.958;3.592;2022-07-23T02:04:50;10.40;;;8.57;;
54167;SDS011;40072;50.958;3.592;2022-07-23T02:07:15;9.77;;;8.10;;
54167;SDS011;40072;50.958;3.592;2022-07-23T02:09:41;10.75;;;8.27;;
54167;SDS011;40072;50.958;3.592;2022-07-23T02:12:07;10.85;;;7.85;;
54167;SDS011;40072;50.958;3.592;2022-07-23T02:14:33;11.55;;;7.95;;
54167;SDS011;40072;50.958;3.592;2022-07-23T02:16:58;10.15;;;7.40;;
54167;SDS011;40072;50.958;3.592;2022-07-23T02:19:24;9.07;;;7.38;;
54167;SDS011;40072;50.958;3.592;2022-07-23T02:21:50;10.77;;;7.55;;
54167;SDS011;40072;50.958;3.592;2022-07-23T02:24:16;8.77;;;7.40;;
54167;SDS011;40072;50.958;3.592;2022-07-23T02:26:42;10.98;;;8.00;;
54167;SDS011;40072;50.958;3.592;2022-07-23T02:29:08;11.40;;;8.48;;
54167;SDS011;40072;50.958;3.592;2022-07-23T02:31:33;12.10;;;8.38;;
54167;SDS011;40072;50.958;3.592;2022-07-23T02:34:00;12.32;;;8.90;;
54167;SDS011;40072;50.958;3.592;2022-07-23T02:36:26;15.63;;;8.75;;
54167;SDS011;40072;50.958;3.592;2022-07-23T02:38:52;13.18;;;8.30;;
54167;SDS011;40072;50.958;3.592;2022-07-23T02:41:17;9.73;;;8.00;;
54167;SDS011;40072;50.958;3.592;2022-07-23T02:43:43;9.75;;;8.32;;
54167;SDS011;40072;50.958;3.592;2022-07-23T02:46:09;11.63;;;8.32;;
54167;SDS011;40072;50.958;3.592;2022-07-23T02:48:34;14.25;;;8.77;;
54167;SDS011;40072;50.958;3.592;2022-07-23T02:51:00;8.98;;;8.07;;
54167;SDS011;40072;50.958;3.592;2022-07-23T02:53:26;10.48;;;7.57;;
54167;SDS011;40072;50.958;3.592;2022-07-23T02:55:51;10.05;;;8.55;;
54167;SDS011;40072;50.958;3.592;2022-07-23T02:58:17;9.55;;;7.72;;
54167;SDS011;40072;50.958;3.592;2022-07-23T03:00:43;12.18;;;7.97;;
54167;SDS011;40072;50.958;3.592;2022-07-23T03:03:08;10.38;;;8.05;;
54167;SDS011;40072;50.958;3.592;2022-07-23T03:05:34;11.00;;;7.90;;
54167;SDS011;40072;50.958;3.592;2022-07-23T03:08:00;9.40;;;8.40;;
54167;SDS011;40072;50.958;3.592;2022-07-23T03:10:25;9.88;;;8.25;;
54167;SDS011;40072;50.958;3.592;2022-07-23T03:12:51;10.30;;;9.23;;
54167;SDS011;40072;50.958;3.592;2022-07-23T03:15:17;11.15;;;8.88;;
54167;SDS011;40072;50.958;3.592;2022-07-23T03:17:43;15.95;;;8.07;;
54167;SDS011;40072;50.958;3.592;2022-07-23T03:20:09;12.30;;;8.98;;
54167;SDS011;40072;50.958;3.592;2022-07-23T03:22:35;11.77;;;8.85;;
54167;SDS011;40072;50.958;3.592;2022-07-23T03:25:00;10.60;;;8.15;;
54167;SDS011;40072;50.958;3.592;2022-07-23T03:27:27;10.60;;;8.43;;
54167;SDS011;40072;50.958;3.592;2022-07-23T03:29:54;12.02;;;8.00;;
54167;SDS011;40072;50.958;3.592;2022-07-23T03:32:22;9.57;;;8.60;;
54167;SDS011;40072;50.958;3.592;2022-07-23T03:34:48;10.27;;;8.85;;
54167;SDS011;40072;50.958;3.592;2022-07-23T03:37:15;11.48;;;8.32;;
54167;SDS011;40072;50.958;3.592;2022-07-23T03:39:41;12.15;;;9.02;;
54167;SDS011;40072;50.958;3.592;2022-07-23T03:42:07;12.90;;;9.55;;
54167;SDS011;40072;50.958;3.592;2022-07-23T03:44:33;11.20;;;9.38;;
54167;SDS011;40072;50.958;3.592;2022-07-23T03:46:59;12.85;;;9.35;;
54167;SDS011;40072;50.958;3.592;2022-07-23T03:49:25;11.18;;;8.73;;
54167;SDS011;40072;50.958;3.592;2022-07-23T03:51:51;11.90;;;8.70;;
54167;SDS011;40072;50.958;3.592;2022-07-23T03:54:16;11.70;;;9.07;;
54167;SDS011;40072;50.958;3.592;2022-07-23T03:56:42;10.93;;;8.98;;
54167;SDS011;40072;50.958;3.592;2022-07-23T03:59:08;11.57;;;8.23;;
54167;SDS011;40072;50.958;3.592;2022-07-23T04:01:34;8.35;;;7.40;;
54167;SDS011;40072;50.958;3.592;2022-07-23T04:04:00;10.85;;;8.35;;
54167;SDS011;40072;50.958;3.592;2022-07-23T04:06:27;12.50;;;9.07;;
54167;SDS011;40072;50.958;3.592;2022-07-23T04:08:53;9.88;;;8.88;;
54167;SDS011;40072;50.958;3.592;2022-07-23T04:11:19;10.07;;;8.23;;
54167;SDS011;40072;50.958;3.592;2022-07-23T04:13:44;9.30;;;7.18;;
54167;SDS011;40072;50.958;3.592;2022-07-23T04:16:10;7.70;;;7.00;;
54167;SDS011;40072;50.958;3.592;2022-07-23T04:18:36;6.13;;;5.53;;
54167;SDS011;40072;50.958;3.592;2022-07-23T04:21:02;6.45;;;5.82;;
54167;SDS011;40072;50.958;3.592;2022-07-23T04:23:27;6.05;;;5.55;;
54167;SDS011;40072;50.958;3.592;2022-07-23T04:25:53;6.25;;;5.65;;
54167;SDS011;40072;50.958;3.592;2022-07-23T04:28:18;5.70;;;5.20;;
54167;SDS011;40072;50.958;3.592;2022-07-23T04:30:44;7.53;;;6.82;;
54167;SDS011;40072;50.958;3.592;2022-07-23T04:33:10;7.40;;;5.53;;
54167;SDS011;40072;50.958;3.592;2022-07-23T04:35:36;8.05;;;6.30;;
54167;SDS011;40072;50.958;3.592;2022-07-23T04:38:02;8.95;;;6.57;;
54167;SDS011;40072;50.958;3.592;2022-07-23T04:40:28;9.35;;;7.50;;
54167;SDS011;40072;50.958;3.592;2022-07-23T04:42:55;8.73;;;6.90;;
54167;SDS011;40072;50.958;3.592;2022-07-23T04:45:21;7.53;;;6.68;;
54167;SDS011;40072;50.958;3.592;2022-07-23T04:47:48;8.32;;;7.47;;
54167;SDS011;40072;50.958;3.592;2022-07-23T04:50:14;11.82;;;7.43;;
54167;SDS011;40072;50.958;3.592;2022-07-23T04:52:43;8.00;;;7.20;;
54167;SDS011;40072;50.958;3.592;2022-07-23T04:55:09;10.23;;;8.38;;
54167;SDS011;40072;50.958;3.592;2022-07-23T04:57:35;10.63;;;7.20;;
54167;SDS011;40072;50.958;3.592;2022-07-23T05:00:01;8.52;;;7.72;;
54167;SDS011;40072;50.958;3.592;2022-07-23T05:02:28;10.35;;;7.25;;
54167;SDS011;40072;50.958;3.592;2022-07-23T05:04:54;10.27;;;7.75;;
54167;SDS011;40072;50.958;3.592;2022-07-23T05:07:20;8.48;;;7.65;;
54167;SDS011;40072;50.958;3.592;2022-07-23T05:09:45;14.88;;;7.85;;
54167;SDS011;40072;50.958;3.592;2022-07-23T05:12:11;13.30;;;10.05;;
54167;SDS011;40072;50.958;3.592;2022-07-23T05:14:37;14.07;;;10.40;;
54167;SDS011;40072;50.958;3.592;2022-07-23T05:17:03;14.98;;;10.02;;
54167;SDS011;40072;50.958;3.592;2022-07-23T05:19:28;11.48;;;8.88;;
54167;SDS011;40072;50.958;3.592;2022-07-23T05:21:54;10.40;;;8.50;;
54167;SDS011;40072;50.958;3.592;2022-07-23T05:24:20;11.82;;;9.80;;
54167;SDS011;40072;50.958;3.592;2022-07-23T05:26:45;9.65;;;8.82;;
54167;SDS011;40072;50.958;3.592;2022-07-23T05:29:11;12.00;;;9.00;;
54167;SDS011;40072;50.958;3.592;2022-07-23T05:31:36;9.45;;;8.55;;
54167;SDS011;40072;50.958;3.592;2022-07-23T05:34:02;9.00;;;8.07;;
54167;SDS011;40072;50.958;3.592;2022-07-23T05:36:28;11.07;;;7.97;;
54167;SDS011;40072;50.958;3.592;2022-07-23T05:38:56;8.93;;;8.00;;
54167;SDS011;40072;50.958;3.592;2022-07-23T05:41:22;12.02;;;8.30;;
54167;SDS011;40072;50.958;3.592;2022-07-23T05:43:47;11.30;;;8.43;;
54167;SDS011;40072;50.958;3.592;2022-07-23T05:46:13;11.02;;;9.80;;
54167;SDS011;40072;50.958;3.592;2022-07-23T05:48:39;16.80;;;9.30;;
54167;SDS011;40072;50.958;3.592;2022-07-23T05:51:04;16.17;;;9.13;;
54167;SDS011;40072;50.958;3.592;2022-07-23T05:53:31;16.00;;;9.90;;
54167;SDS011;40072;50.958;3.592;2022-07-23T05:55:57;18.05;;;9.93;;
54167;SDS011;40072;50.958;3.592;2022-07-23T05:58:23;12.70;;;9.95;;
54167;SDS011;40072;50.958;3.592;2022-07-23T06:00:49;11.15;;;8.90;;
54167;SDS011;40072;50.958;3.592;2022-07-23T06:03:14;11.90;;;9.00;;
54167;SDS011;40072;50.958;3.592;2022-07-23T06:05:40;14.13;;;9.45;;
54167;SDS011;40072;50.958;3.592;2022-07-23T06:08:06;9.70;;;8.57;;
54167;SDS011;40072;50.958;3.592;2022-07-23T06:10:31;11.80;;;8.65;;
54167;SDS011;40072;50.958;3.592;2022-07-23T06:12:57;10.93;;;8.18;;
54167;SDS011;40072;50.958;3.592;2022-07-23T06:15:23;13.50;;;8.80;;
54167;SDS011;40072;50.958;3.592;2022-07-23T06:17:48;9.18;;;7.95;;
54167;SDS011;40072;50.958;3.592;2022-07-23T06:20:14;14.55;;;8.75;;
54167;SDS011;40072;50.958;3.592;2022-07-23T06:22:40;11.40;;;8.55;;
54167;SDS011;40072;50.958;3.592;2022-07-23T06:25:06;16.65;;;8.80;;
54167;SDS011;40072;50.958;3.592;2022-07-23T06:27:32;13.52;;;8.75;;
54167;SDS011;40072;50.958;3.592;2022-07-23T06:29:57;10.35;;;8.48;;
54167;SDS011;40072;50.958;3.592;2022-07-23T06:32:23;15.85;;;8.38;;
54167;SDS011;40072;50.958;3.592;2022-07-23T06:34:49;10.50;;;7.18;;
54167;SDS011;40072;50.958;3.592;2022-07-23T06:37:14;10.82;;;8.02;;
54167;SDS011;40072;50.958;3.592;2022-07-23T06:39:41;12.70;;;7.30;;
54167;SDS011;40072;50.958;3.592;2022-07-23T06:42:07;11.90;;;7.60;;
54167;SDS011;40072;50.958;3.592;2022-07-23T06:44:33;10.35;;;7.78;;
54167;SDS011;40072;50.958;3.592;2022-07-23T06:46:58;9.77;;;7.65;;
54167;SDS011;40072;50.958;3.592;2022-07-23T06:49:24;13.35;;;7.88;;
54167;SDS011;40072;50.958;3.592;2022-07-23T06:51:50;11.75;;;7.60;;
54167;SDS011;40072;50.958;3.592;2022-07-23T06:54:15;12.05;;;9.05;;
54167;SDS011;40072;50.958;3.592;2022-07-23T06:56:41;11.10;;;7.45;;
54167;SDS011;40072;50.958;3.592;2022-07-23T06:59:08;13.98;;;8.70;;
54167;SDS011;40072;50.958;3.592;2022-07-23T07:01:34;9.10;;;7.53;;
54167;SDS011;40072;50.958;3.592;2022-07-23T07:03:59;11.13;;;7.97;;
54167;SDS011;40072;50.958;3.592;2022-07-23T07:06:25;8.43;;;7.43;;
54167;SDS011;40072;50.958;3.592;2022-07-23T07:08:51;13.68;;;8.10;;
54167;SDS011;40072;50.958;3.592;2022-07-23T07:11:16;9.68;;;7.65;;
54167;SDS011;40072;50.958;3.592;2022-07-23T07:13:42;12.65;;;8.02;;
54167;SDS011;40072;50.958;3.592;2022-07-23T07:16:07;13.18;;;8.23;;
54167;SDS011;40072;50.958;3.592;2022-07-23T07:18:33;13.68;;;8.43;;
54167;SDS011;40072;50.958;3.592;2022-07-23T07:20:59;12.57;;;8.00;;
54167;SDS011;40072;50.958;3.592;2022-07-23T07:23:24;9.80;;;7.75;;
54167;SDS011;40072;50.958;3.592;2022-07-23T07:25:50;11.38;;;7.68;;
54167;SDS011;40072;50.958;3.592;2022-07-23T07:28:16;11.02;;;7.93;;
54167;SDS011;40072;50.958;3.592;2022-07-23T07:30:41;11.38;;;7.53;;
54167;SDS011;40072;50.958;3.592;2022-07-23T07:33:07;9.40;;;6.70;;
54167;SDS011;40072;50.958;3.592;2022-07-23T07:35:33;15.05;;;7.15;;
54167;SDS011;40072;50.958;3.592;2022-07-23T07:37:59;11.95;;;7.78;;
54167;SDS011;40072;50.958;3.592;2022-07-23T07:40:25;13.40;;;7.07;;
54167;SDS011;40072;50.958;3.592;2022-07-23T07:42:52;13.48;;;7.45;;
54167;SDS011;40072;50.958;3.592;2022-07-23T07:45:22;9.90;;;8.13;;
54167;SDS011;40072;50.958;3.592;2022-07-23T07:47:49;14.13;;;7.90;;
54167;SDS011;40072;50.958;3.592;2022-07-23T07:50:16;10.57;;;7.75;;
54167;SDS011;40072;50.958;3.592;2022-07-23T07:52:42;10.23;;;7.75;;
54167;SDS011;40072;50.958;3.592;2022-07-23T07:55:08;8.77;;;7.30;;
54167;SDS011;40072;50.958;3.592;2022-07-23T07:57:34;11.23;;;7.60;;
54167;SDS011;40072;50.958;3.592;2022-07-23T08:00:00;7.90;;;7.10;;
54167;SDS011;40072;50.958;3.592;2022-07-23T08:02:26;12.52;;;7.82;;
54167;SDS011;40072;50.958;3.592;2022-07-23T08:04:52;12.65;;;8.50;;
54167;SDS011;40072;50.958;3.592;2022-07-23T08:07:17;14.68;;;7.72;;
54167;SDS011;40072;50.958;3.592;2022-07-23T08:09:43;12.88;;;7.53;;
54167;SDS011;40072;50.958;3.592;2022-07-23T08:12:09;12.27;;;7.60;;
54167;SDS011;40072;50.958;3.592;2022-07-23T08:14:35;11.40;;;7.47;;
54167;SDS011;40072;50.958;3.592;2022-07-23T08:17:00;12.35;;;7.68;;
54167;SDS011;40072;50.958;3.592;2022-07-23T08:19:26;12.57;;;7.32;;
54167;SDS011;40072;50.958;3.592;2022-07-23T08:21:52;9.20;;;7.20;;
54167;SDS011;40072;50.958;3.592;2022-07-23T08:24:17;13.02;;;7.50;;
54167;SDS011;40072;50.958;3.592;2022-07-23T08:26:43;9.52;;;7.22;;
54167;SDS011;40072;50.958;3.592;2022-07-23T08:29:08;11.13;;;7.50;;
54167;SDS011;40072;50.958;3.592;2022-07-23T08:31:34;11.80;;;7.57;;
54167;SDS011;40072;50.958;3.592;2022-07-23T08:34:00;12.20;;;7.22;;
54167;SDS011;40072;50.958;3.592;2022-07-23T08:36:27;9.30;;;7.15;;
54167;SDS011;40072;50.958;3.592;2022-07-23T08:38:54;9.63;;;6.97;;
54167;SDS011;40072;50.958;3.592;2022-07-23T08:41:20;9.07;;;6.82;;
54167;SDS011;40072;50.958;3.592;2022-07-23T08:43:45;7.18;;;6.47;;
54167;SDS011;40072;50.958;3.592;2022-07-23T08:46:11;8.85;;;6.78;;
54167;SDS011;40072;50.958;3.592;2022-07-23T08:48:38;11.98;;;6.20;;
54167;SDS011;40072;50.958;3.592;2022-07-23T08:51:04;11.70;;;6.47;;
54167;SDS011;40072;50.958;3.592;2022-07-23T08:53:32;12.77;;;6.72;;
54167;SDS011;40072;50.958;3.592;2022-07-23T08:55:59;10.55;;;6.50;;
54167;SDS011;40072;50.958;3.592;2022-07-23T08:58:29;7.57;;;4.80;;
54167;SDS011;40072;50.958;3.592;2022-07-23T09:00:56;7.00;;;4.00;;
54167;SDS011;40072;50.958;3.592;2022-07-23T09:03:22;6.28;;;4.28;;
54167;SDS011;40072;50.958;3.592;2022-07-23T09:05:50;12.07;;;6.10;;
54167;SDS011;40072;50.958;3.592;2022-07-23T09:08:18;7.53;;;4.55;;
54167;SDS011;40072;50.958;3.592;2022-07-23T09:13:26;3.95;;;3.15;;
54167;SDS011;40072;50.958;3.592;2022-07-23T09:15:52;4.90;;;3.22;;
54167;SDS011;40072;50.958;3.592;2022-07-23T09:18:27;8.48;;;4.07;;
54167;SDS011;40072;50.958;3.592;2022-07-23T09:21:07;7.38;;;4.80;;
54167;SDS011;40072;50.958;3.592;2022-07-23T09:26:18;10.77;;;4.75;;
54167;SDS011;40072;50.958;3.592;2022-07-23T09:28:56;5.63;;;4.20;;
54167;SDS011;40072;50.958;3.592;2022-07-23T09:31:24;7.57;;;4.78;;
54167;SDS011;40072;50.958;3.592;2022-07-23T09:34:05;4.40;;;4.00;;
54167;SDS011;40072;50.958;3.592;2022-07-23T09:36:33;5.95;;;4.00;;
54167;SDS011;40072;50.958;3.592;2022-07-23T09:38:59;6.88;;;3.28;;
54167;SDS011;40072;50.958;3.592;2022-07-23T09:41:24;4.53;;;3.30;;
54167;SDS011;40072;50.958;3.592;2022-07-23T09:44:06;6.55;;;3.92;;
54167;SDS011;40072;50.958;3.592;2022-07-23T09:46:34;6.22;;;3.40;;
54167;SDS011;40072;50.958;3.592;2022-07-23T09:49:00;6.68;;;3.88;;
54167;SDS011;40072;50.958;3.592;2022-07-23T09:51:46;6.40;;;4.07;;
54167;SDS011;40072;50.958;3.592;2022-07-23T09:54:47;6.05;;;3.67;;
54167;SDS011;40072;50.958;3.592;2022-07-23T09:57:09;7.10;;;4.28;;
54167;SDS011;40072;50.958;3.592;2022-07-23T09:59:42;6.47;;;3.90;;
54167;SDS011;40072;50.958;3.592;2022-07-23T10:02:11;7.72;;;3.78;;
54167;SDS011;40072;50.958;3.592;2022-07-23T10:04:38;5.00;;;3.35;;
54167;SDS011;40072;50.958;3.592;2022-07-23T10:07:05;7.25;;;4.30;;
54167;SDS011;40072;50.958;3.592;2022-07-23T10:09:34;6.88;;;3.63;;
54167;SDS011;40072;50.958;3.592;2022-07-23T10:12:08;8.25;;;4.80;;
54167;SDS011;40072;50.958;3.592;2022-07-23T10:14:56;6.60;;;4.00;;
54167;SDS011;40072;50.958;3.592;2022-07-23T10:17:22;6.90;;;3.42;;
54167;SDS011;40072;50.958;3.592;2022-07-23T10:19:47;7.65;;;3.60;;
54167;SDS011;40072;50.958;3.592;2022-07-23T10:22:14;6.45;;;4.32;;
54167;SDS011;40072;50.958;3.592;2022-07-23T10:30:26;5.10;;;3.55;;
54167;SDS011;40072;50.958;3.592;2022-07-23T10:33:02;5.68;;;3.95;;
54167;SDS011;40072;50.958;3.592;2022-07-23T10:41:40;4.43;;;2.80;;
54167;SDS011;40072;50.958;3.592;2022-07-23T10:46:54;5.53;;;2.75;;
54167;SDS011;40072;50.958;3.592;2022-07-23T10:49:28;5.80;;;3.22;;
54167;SDS011;40072;50.958;3.592;2022-07-23T10:57:46;7.55;;;3.10;;
54167;SDS011;40072;50.958;3.592;2022-07-23T11:00:14;5.13;;;3.65;;
54167;SDS011;40072;50.958;3.592;2022-07-23T11:05:11;2.60;;;2.40;;
54167;SDS011;40072;50.958;3.592;2022-07-23T11:24:07;3.33;;;3.03;;
54167;SDS011;40072;50.958;3.592;2022-07-23T11:31:58;5.07;;;2.53;;
54167;SDS011;40072;50.958;3.592;2022-07-23T11:36:57;2.67;;;2.10;;
54167;SDS011;40072;50.958;3.592;2022-07-23T11:39:24;4.05;;;2.20;;
54167;SDS011;40072;50.958;3.592;2022-07-23T11:41:52;10.80;;;2.33;;
54167;SDS011;40072;50.958;3.592;2022-07-23T11:44:28;4.25;;;2.03;;
54167;SDS011;40072;50.958;3.592;2022-07-23T11:47:13;4.13;;;2.40;;
54167;SDS011;40072;50.958;3.592;2022-07-23T11:49:39;4.47;;;2.70;;
54167;SDS011;40072;50.958;3.592;2022-07-23T11:52:18;5.53;;;2.55;;
54167;SDS011;40072;50.958;3.592;2022-07-23T11:54:50;3.33;;;1.98;;
54167;SDS011;40072;50.958;3.592;2022-07-23T11:57:18;2.97;;;2.25;;
54167;SDS011;40072;50.958;3.592;2022-07-23T11:59:45;3.70;;;2.25;;
54167;SDS011;40072;50.958;3.592;2022-07-23T12:02:14;3.50;;;2.40;;
54167;SDS011;40072;50.958;3.592;2022-07-23T12:04:41;5.28;;;2.90;;
54167;SDS011;40072;50.958;3.592;2022-07-23T12:10:03;4.22;;;2.92;;
54167;SDS011;40072;50.958;3.592;2022-07-23T12:15:10;5.82;;;2.45;;
54167;SDS011;40072;50.958;3.592;2022-07-23T12:17:38;5.13;;;2.73;;
54167;SDS011;40072;50.958;3.592;2022-07-23T12:20:07;10.88;;;3.17;;
54167;SDS011;40072;50.958;3.592;2022-07-23T12:22:41;5.03;;;2.42;;
54167;SDS011;40072;50.958;3.592;2022-07-23T12:25:13;3.33;;;2.40;;
54167;SDS011;40072;50.958;3.592;2022-07-23T12:27:40;4.43;;;2.90;;
54167;SDS011;40072;50.958;3.592;2022-07-23T12:32:43;7.50;;;2.50;;
54167;SDS011;40072;50.958;3.592;2022-07-23T12:35:11;4.18;;;2.72;;
54167;SDS011;40072;50.958;3.592;2022-07-23T12:37:39;2.90;;;2.60;;
54167;SDS011;40072;50.958;3.592;2022-07-23T12:48:15;19.55;;;3.50;;
54167;SDS011;40072;50.958;3.592;2022-07-23T12:51:17;3.88;;;2.40;;
54167;SDS011;40072;50.958;3.592;2022-07-23T12:53:48;4.68;;;2.78;;
54167;SDS011;40072;50.958;3.592;2022-07-23T12:56:19;2.13;;;1.92;;
54167;SDS011;40072;50.958;3.592;2022-07-23T12:58:51;4.35;;;2.30;;
54167;SDS011;40072;50.958;3.592;2022-07-23T13:03:55;5.78;;;2.35;;
54167;SDS011;40072;50.958;3.592;2022-07-23T13:06:24;6.47;;;2.40;;
54167;SDS011;40072;50.958;3.592;2022-07-23T13:08:50;4.88;;;2.50;;
54167;SDS011;40072;50.958;3.592;2022-07-23T13:11:16;3.95;;;2.55;;
54167;SDS011;40072;50.958;3.592;2022-07-23T13:13:41;5.07;;;2.53;;
54167;SDS011;40072;50.958;3.592;2022-07-23T13:16:07;2.83;;;2.03;;
54167;SDS011;40072;50.958;3.592;2022-07-23T13:18:33;6.95;;;2.63;;
54167;SDS011;40072;50.958;3.592;2022-07-23T13:21:00;4.88;;;2.67;;
54167;SDS011;40072;50.958;3.592;2022-07-23T13:23:26;6.22;;;3.00;;
54167;SDS011;40072;50.958;3.592;2022-07-23T13:25:52;4.95;;;2.50;;
54167;SDS011;40072;50.958;3.592;2022-07-23T13:28:18;6.13;;;2.83;;
54167;SDS011;40072;50.958;3.592;2022-07-23T13:30:45;4.57;;;2.78;;
54167;SDS011;40072;50.958;3.592;2022-07-23T13:33:14;6.32;;;3.08;;
54167;SDS011;40072;50.958;3.592;2022-07-23T13:35:41;4.05;;;2.78;;
54167;SDS011;40072;50.958;3.592;2022-07-23T13:38:06;3.65;;;2.63;;
54167;SDS011;40072;50.958;3.592;2022-07-23T13:40:33;4.13;;;2.40;;
54167;SDS011;40072;50.958;3.592;2022-07-23T13:43:04;4.38;;;2.63;;
54167;SDS011;40072;50.958;3.592;2022-07-23T13:45:31;3.50;;;2.42;;
54167;SDS011;40072;50.958;3.592;2022-07-23T13:47:57;4.22;;;2.42;;
54167;SDS011;40072;50.958;3.592;2022-07-23T13:50:23;7.38;;;2.47;;
54167;SDS011;40072;50.958;3.592;2022-07-23T13:52:48;6.82;;;2.58;;
54167;SDS011;40072;50.958;3.592;2022-07-23T13:55:14;3.42;;;2.85;;
54167;SDS011;40072;50.958;3.592;2022-07-23T13:57:40;6.13;;;3.15;;
54167;SDS011;40072;50.958;3.592;2022-07-23T14:00:06;5.43;;;3.05;;
54167;SDS011;40072;50.958;3.592;2022-07-23T14:02:35;4.20;;;3.08;;
54167;SDS011;40072;50.958;3.592;2022-07-23T14:05:02;5.27;;;2.70;;
54167;SDS011;40072;50.958;3.592;2022-07-23T14:07:29;5.43;;;3.25;;
54167;SDS011;40072;50.958;3.592;2022-07-23T14:09:55;4.10;;;2.97;;
54167;SDS011;40072;50.958;3.592;2022-07-23T14:12:20;5.40;;;3.42;;
54167;SDS011;40072;50.958;3.592;2022-07-23T14:14:46;8.00;;;3.15;;
54167;SDS011;40072;50.958;3.592;2022-07-23T14:17:12;3.55;;;2.65;;
54167;SDS011;40072;50.958;3.592;2022-07-23T14:19:38;3.75;;;3.25;;
54167;SDS011;40072;50.958;3.592;2022-07-23T14:22:04;10.57;;;3.38;;
54167;SDS011;40072;50.958;3.592;2022-07-23T14:24:29;4.93;;;3.47;;
54167;SDS011;40072;50.958;3.592;2022-07-23T14:26:55;3.85;;;3.47;;
54167;SDS011;40072;50.958;3.592;2022-07-23T14:29:21;5.45;;;3.30;;
54167;SDS011;40072;50.958;3.592;2022-07-23T14:31:46;5.70;;;3.80;;
54167;SDS011;40072;50.958;3.592;2022-07-23T14:34:13;5.32;;;3.55;;
54167;SDS011;40072;50.958;3.592;2022-07-23T14:36:39;8.00;;;4.13;;
54167;SDS011;40072;50.958;3.592;2022-07-23T14:39:04;4.43;;;3.20;;
54167;SDS011;40072;50.958;3.592;2022-07-23T14:41:30;5.32;;;3.08;;
54167;SDS011;40072;50.958;3.592;2022-07-23T14:43:56;5.25;;;3.25;;
54167;SDS011;40072;50.958;3.592;2022-07-23T14:46:22;6.85;;;3.97;;
54167;SDS011;40072;50.958;3.592;2022-07-23T14:48:47;5.10;;;4.45;;
54167;SDS011;40072;50.958;3.592;2022-07-23T14:51:13;6.00;;;3.65;;
54167;SDS011;40072;50.958;3.592;2022-07-23T14:53:38;5.57;;;3.55;;
54167;SDS011;40072;50.958;3.592;2022-07-23T14:56:04;8.55;;;4.43;;
54167;SDS011;40072;50.958;3.592;2022-07-23T14:58:30;6.80;;;5.18;;
54167;SDS011;40072;50.958;3.592;2022-07-23T15:00:55;8.25;;;4.47;;
54167;SDS011;40072;50.958;3.592;2022-07-23T15:03:21;4.60;;;3.28;;
54167;SDS011;40072;50.958;3.592;2022-07-23T15:05:47;5.60;;;3.28;;
54167;SDS011;40072;50.958;3.592;2022-07-23T15:08:12;7.68;;;3.75;;
54167;SDS011;40072;50.958;3.592;2022-07-23T15:10:38;4.13;;;3.42;;
54167;SDS011;40072;50.958;3.592;2022-07-23T15:13:04;3.78;;;3.05;;
54167;SDS011;40072;50.958;3.592;2022-07-23T15:15:30;8.43;;;3.35;;
54167;SDS011;40072;50.958;3.592;2022-07-23T15:17:56;5.85;;;3.33;;
54167;SDS011;40072;50.958;3.592;2022-07-23T15:20:22;4.70;;;2.70;;
54167;SDS011;40072;50.958;3.592;2022-07-23T15:22:47;5.18;;;3.20;;
54167;SDS011;40072;50.958;3.592;2022-07-23T15:25:13;7.07;;;3.50;;
54167;SDS011;40072;50.958;3.592;2022-07-23T15:27:39;6.85;;;3.50;;
54167;SDS011;40072;50.958;3.592;2022-07-23T15:30:05;6.85;;;3.53;;
54167;SDS011;40072;50.958;3.592;2022-07-23T15:32:31;6.18;;;3.58;;
54167;SDS011;40072;50.958;3.592;2022-07-23T15:34:57;5.93;;;3.58;;
54167;SDS011;40072;50.958;3.592;2022-07-23T15:37:22;5.55;;;3.70;;
54167;SDS011;40072;50.958;3.592;2022-07-23T15:39:48;6.57;;;3.53;;
54167;SDS011;40072;50.958;3.592;2022-07-23T15:42:14;5.20;;;3.63;;
54167;SDS011;40072;50.958;3.592;2022-07-23T15:44:41;7.00;;;3.78;;
54167;SDS011;40072;50.958;3.592;2022-07-23T15:47:10;4.22;;;3.67;;
54167;SDS011;40072;50.958;3.592;2022-07-23T15:49:37;4.65;;;3.33;;
54167;SDS011;40072;50.958;3.592;2022-07-23T15:52:03;4.57;;;3.38;;